Time,TemperatureF,DewpointF,PressureIn,WindDirection,WindDirectionDegrees,WindSpeedMPH,WindSpeedGustMPH,Humidity,HourlyPrecipIn,Conditions,Clouds,dailyrainin,SoftwareType,DateUTC
2013-03-14 00:01:00,81.0,24.0,30.11,NE,37,6.0,12.0,12,0.00,,,0.00,,2013-03-14 00:01:00,
2013-03-14 00:11:00,81.0,24.0,30.11,NE,37,6.0,12.0,12,0.00,,,0.00,,2013-03-14 00:11:00,
2013-03-14 00:21:00,81.0,24.0,30.11,NE,56,3.0,10.0,12,0.00,,,0.00,,2013-03-14 00:21:00,
2013-03-14 00:31:00,81.0,24.0,30.11,SE,129,5.0,8.0,12,0.00,,,0.00,,2013-03-14 00:31:00,
2013-03-14 00:42:00,81.0,24.0,30.11,SE,129,5.0,8.0,12,0.00,,,0.00,,2013-03-14 00:42:00,
2013-03-14 00:52:00,81.0,24.0,30.11,East,99,5.0,7.0,12,0.00,,,0.00,,2013-03-14 00:52:00,
2013-03-14 01:01:00,81.0,22.0,30.11,NE,53,1.0,5.0,11,0.00,,,0.00,,2013-03-14 01:01:00,
2013-03-14 01:11:00,81.0,22.0,30.11,NE,53,1.0,5.0,11,0.00,,,0.00,,2013-03-14 01:11:00,
2013-03-14 01:21:00,80.0,23.0,30.11,East,91,1.0,7.0,12,0.00,,,0.00,,2013-03-14 01:21:00,
2013-03-14 01:32:00,80.0,23.0,30.11,East,83,3.0,5.0,12,0.00,,,0.00,,2013-03-14 01:32:00,
2013-03-14 01:41:00,80.0,23.0,30.11,East,83,3.0,5.0,12,0.00,,,0.00,,2013-03-14 01:41:00,
2013-03-14 01:52:00,80.0,23.0,30.11,ESE,103,3.0,5.0,12,0.00,,,0.00,,2013-03-14 01:52:00,
2013-03-14 02:01:00,78.0,23.0,30.11,ESE,112,1.0,7.0,13,0.00,,,0.00,,2013-03-14 02:01:00,
2013-03-14 02:11:00,78.0,23.0,30.11,ESE,112,1.0,7.0,13,0.00,,,0.00,,2013-03-14 02:11:00,
2013-03-14 02:21:00,76.0,23.0,30.11,ESE,108,1.0,4.0,14,0.00,,,0.00,,2013-03-14 02:21:00,
2013-03-14 02:31:00,76.0,23.0,30.11,North,0,0.0,4.0,14,0.00,,,0.00,,2013-03-14 02:31:00,
2013-03-14 02:42:00,76.0,23.0,30.11,North,0,0.0,4.0,14,0.00,,,0.00,,2013-03-14 02:42:00,
2013-03-14 02:52:00,76.0,23.0,30.11,North,0,0.0,4.0,14,0.00,,,0.00,,2013-03-14 02:52:00,
2013-03-14 03:01:00,69.0,26.0,30.12,NW,317,5.0,8.0,20,0.00,,,0.00,,2013-03-14 03:01:00,
2013-03-14 03:11:00,69.0,26.0,30.12,NW,317,5.0,8.0,20,0.00,,,0.00,,2013-03-14 03:11:00,
2013-03-14 03:22:00,67.0,27.0,30.12,NW,316,5.0,7.0,22,0.00,,,0.00,,2013-03-14 03:22:00,
2013-03-14 03:31:00,66.0,26.0,30.12,NW,317,5.0,8.0,22,0.00,,,0.00,,2013-03-14 03:31:00,
2013-03-14 03:41:00,66.0,26.0,30.12,NW,317,5.0,8.0,22,0.00,,,0.00,,2013-03-14 03:41:00,
2013-03-14 03:52:00,66.0,26.0,30.13,NW,315,6.0,8.0,22,0.00,,,0.00,,2013-03-14 03:52:00,
2013-03-14 04:01:00,65.0,25.0,30.13,NW,313,6.0,9.0,22,0.00,,,0.00,,2013-03-14 04:01:00,
2013-03-14 04:11:00,65.0,25.0,30.13,NW,313,6.0,9.0,22,0.00,,,0.00,,2013-03-14 04:11:00,
2013-03-14 04:22:00,65.0,26.0,30.13,NW,317,7.0,9.0,23,0.00,,,0.00,,2013-03-14 04:22:00,
2013-03-14 04:32:00,65.0,26.0,30.14,NW,319,8.0,10.0,23,0.00,,,0.00,,2013-03-14 04:32:00,
2013-03-14 04:41:00,65.0,26.0,30.14,NW,319,8.0,10.0,23,0.00,,,0.00,,2013-03-14 04:41:00,
2013-03-14 04:52:00,65.0,26.0,30.14,NW,318,7.0,10.0,23,0.00,,,0.00,,2013-03-14 04:52:00,
2013-03-14 05:01:00,64.0,25.0,30.14,NW,317,7.0,9.0,23,0.00,,,0.00,,2013-03-14 05:01:00,
2013-03-14 05:11:00,64.0,25.0,30.14,NW,317,7.0,9.0,23,0.00,,,0.00,,2013-03-14 05:11:00,
2013-03-14 05:21:00,64.0,26.0,30.14,NW,319,5.0,8.0,24,0.00,,,0.00,,2013-03-14 05:21:00,
2013-03-14 05:32:00,63.0,26.0,30.15,NW,317,6.0,9.0,24,0.00,,,0.00,,2013-03-14 05:32:00,
2013-03-14 05:42:00,63.0,26.0,30.15,NW,317,6.0,9.0,24,0.00,,,0.00,,2013-03-14 05:42:00,
2013-03-14 05:52:00,63.0,26.0,30.15,NNW,331,5.0,8.0,24,0.00,,,0.00,,2013-03-14 05:52:00,
2013-03-14 06:01:00,64.0,26.0,30.16,NNW,331,5.0,6.0,24,0.00,,,0.00,,2013-03-14 06:01:00,
2013-03-14 06:11:00,64.0,26.0,30.16,NNW,331,5.0,6.0,24,0.00,,,0.00,,2013-03-14 06:11:00,
2013-03-14 06:21:00,63.0,26.0,30.16,NW,326,5.0,6.0,24,0.00,,,0.00,,2013-03-14 06:21:00,
2013-03-14 06:31:00,62.0,27.0,30.15,NW,322,6.0,8.0,26,0.00,,,0.00,,2013-03-14 06:31:00,
2013-03-14 06:41:00,62.0,27.0,30.15,NW,322,6.0,8.0,26,0.00,,,0.00,,2013-03-14 06:41:00,
2013-03-14 06:52:00,60.0,27.0,30.15,NW,321,7.0,9.0,28,0.00,,,0.00,,2013-03-14 06:52:00,
2013-03-14 07:01:00,61.0,28.0,30.15,NW,320,7.0,10.0,28,0.00,,,0.00,,2013-03-14 07:01:00,
2013-03-14 07:11:00,61.0,28.0,30.15,NW,320,7.0,10.0,28,0.00,,,0.00,,2013-03-14 07:11:00,
2013-03-14 07:21:00,60.0,28.0,30.15,NW,318,7.0,9.0,29,0.00,,,0.00,,2013-03-14 07:21:00,
2013-03-14 07:31:00,60.0,28.0,30.14,NW,319,8.0,11.0,29,0.00,,,0.00,,2013-03-14 07:31:00,
2013-03-14 07:41:00,60.0,28.0,30.14,NW,319,8.0,11.0,29,0.00,,,0.00,,2013-03-14 07:41:00,
2013-03-14 07:52:00,60.0,28.0,30.14,NW,323,10.0,12.0,29,0.00,,,0.00,,2013-03-14 07:52:00,
2013-03-14 08:01:00,61.0,28.0,30.15,NW,319,8.0,11.0,28,0.00,,,0.00,,2013-03-14 08:01:00,
2013-03-14 08:11:00,61.0,28.0,30.15,NW,319,8.0,11.0,28,0.00,,,0.00,,2013-03-14 08:11:00,
2013-03-14 08:21:00,60.0,27.0,30.14,NW,305,6.0,12.0,28,0.00,,,0.00,,2013-03-14 08:21:00,
2013-03-14 08:31:00,60.0,28.0,30.14,NW,306,5.0,10.0,29,0.00,,,0.00,,2013-03-14 08:31:00,
2013-03-14 08:41:00,60.0,28.0,30.14,NW,306,5.0,10.0,29,0.00,,,0.00,,2013-03-14 08:41:00,
2013-03-14 08:52:00,60.0,28.0,30.14,NW,320,5.0,9.0,29,0.00,,,0.00,,2013-03-14 08:52:00,
2013-03-14 09:01:00,59.0,28.0,30.14,NW,322,5.0,7.0,30,0.00,,,0.00,,2013-03-14 09:01:00,
2013-03-14 09:11:00,59.0,28.0,30.14,NW,322,5.0,7.0,30,0.00,,,0.00,,2013-03-14 09:11:00,
2013-03-14 09:22:00,59.0,28.0,30.14,NW,315,5.0,7.0,30,0.00,,,0.00,,2013-03-14 09:22:00,
2013-03-14 09:31:00,59.0,28.0,30.14,NW,320,6.0,8.0,30,0.00,,,0.00,,2013-03-14 09:31:00,
2013-03-14 09:41:00,59.0,28.0,30.14,NW,320,6.0,8.0,30,0.00,,,0.00,,2013-03-14 09:41:00,
2013-03-14 09:52:00,59.0,28.0,30.14,NW,317,7.0,9.0,31,0.00,,,0.00,,2013-03-14 09:52:00,
2013-03-14 10:01:00,58.0,28.0,30.14,NW,320,6.0,8.0,32,0.00,,,0.00,,2013-03-14 10:01:00,
2013-03-14 10:11:00,58.0,28.0,30.14,NW,320,6.0,8.0,32,0.00,,,0.00,,2013-03-14 10:11:00,
2013-03-14 10:21:00,57.0,27.0,30.14,NW,305,7.0,9.0,32,0.00,,,0.00,,2013-03-14 10:21:00,
2013-03-14 10:31:00,57.0,27.0,30.14,NW,317,6.0,10.0,32,0.00,,,0.00,,2013-03-14 10:31:00,
2013-03-14 10:41:00,57.0,27.0,30.14,NW,317,6.0,10.0,32,0.00,,,0.00,,2013-03-14 10:41:00,
2013-03-14 10:52:00,57.0,27.0,30.14,NW,316,7.0,9.0,32,0.00,,,0.00,,2013-03-14 10:52:00,
2013-03-14 11:01:00,58.0,28.0,30.14,WNW,292,3.0,6.0,31,0.00,,,0.00,,2013-03-14 11:01:00,
2013-03-14 11:11:00,59.0,27.0,30.14,NW,318,4.0,8.0,29,0.00,,,0.00,,2013-03-14 11:11:00,
2013-03-14 11:21:00,59.0,27.0,30.14,NW,318,4.0,8.0,29,0.00,,,0.00,,2013-03-14 11:21:00,
2013-03-14 11:31:00,60.0,28.0,30.14,NW,310,2.0,5.0,29,0.00,,,0.00,,2013-03-14 11:31:00,
2013-03-14 11:41:00,60.0,28.0,30.14,NW,310,2.0,5.0,29,0.00,,,0.00,,2013-03-14 11:41:00,
2013-03-14 11:52:00,59.0,28.0,30.14,NNW,327,5.0,6.0,30,0.00,,,0.00,,2013-03-14 11:52:00,
2013-03-14 12:01:00,57.0,27.0,30.14,NW,325,6.0,7.0,32,0.00,,,0.00,,2013-03-14 12:01:00,
2013-03-14 12:21:00,56.0,27.0,30.14,NNW,338,2.0,6.0,33,0.00,,,0.00,,2013-03-14 12:21:00,
2013-03-14 12:32:00,55.0,28.0,30.14,NNW,331,4.0,6.0,35,0.00,,,0.00,,2013-03-14 12:32:00,
2013-03-14 12:42:00,55.0,28.0,30.14,NNW,331,4.0,6.0,35,0.00,,,0.00,,2013-03-14 12:42:00,
2013-03-14 12:52:00,58.0,28.0,30.15,North,351,1.0,5.0,31,0.00,,,0.00,,2013-03-14 12:52:00,
2013-03-14 13:01:00,55.0,28.0,30.15,NNW,339,3.0,4.0,35,0.00,,,0.00,,2013-03-14 13:01:00,
2013-03-14 13:12:00,55.0,28.0,30.15,NNW,339,3.0,4.0,35,0.00,,,0.00,,2013-03-14 13:12:00,
2013-03-14 13:21:00,56.0,27.0,30.16,NNW,333,3.0,4.0,33,0.00,,,0.00,,2013-03-14 13:21:00,
2013-03-14 13:31:00,58.0,28.0,30.16,NW,325,4.0,5.0,31,0.00,,,0.00,,2013-03-14 13:31:00,
2013-03-14 13:52:00,56.0,27.0,30.16,NW,320,5.0,7.0,33,0.00,,,0.00,,2013-03-14 13:52:00,
2013-03-14 14:01:00,56.0,27.0,30.16,NW,315,4.0,6.0,32,0.00,,,0.00,,2013-03-14 14:01:00,
2013-03-14 14:22:00,58.0,27.0,30.16,NW,320,3.0,6.0,30,0.00,,,0.00,,2013-03-14 14:22:00,
2013-03-14 14:31:00,54.0,28.0,30.17,NW,319,6.0,7.0,36,0.00,,,0.00,,2013-03-14 14:31:00,
2013-03-14 14:52:00,54.0,28.0,30.17,NNW,343,4.0,8.0,36,0.00,,,0.00,,2013-03-14 14:52:00,
2013-03-14 15:01:00,58.0,28.0,30.17,North,0,0.0,4.0,31,0.00,,,0.00,,2013-03-14 15:01:00,
2013-03-14 15:21:00,62.0,28.0,30.18,North,0,0.0,2.0,27,0.00,,,0.00,,2013-03-14 15:21:00,
2013-03-14 15:32:00,64.0,27.0,30.18,North,0,0.0,2.0,25,0.00,,,0.00,,2013-03-14 15:32:00,
2013-03-14 15:52:00,64.0,29.0,30.19,ENE,78,1.0,3.0,27,0.00,,,0.00,,2013-03-14 15:52:00,
2013-03-14 16:02:00,65.0,28.0,30.19,ESE,111,1.0,2.0,25,0.00,,,0.00,,2013-03-14 16:02:00,
2013-03-14 16:32:00,68.0,29.0,30.19,SE,126,1.0,4.0,23,0.00,,,0.00,,2013-03-14 16:32:00,
2013-03-14 17:01:00,71.0,28.0,30.19,North,0,0.0,2.0,20,0.00,,,0.00,,2013-03-14 17:01:00,
2013-03-14 17:31:00,73.0,28.0,30.18,North,0,0.0,1.0,19,0.00,,,0.00,,2013-03-14 17:31:00,
2013-03-14 17:52:00,76.0,29.0,30.18,North,0,0.0,2.0,18,0.00,,,0.00,,2013-03-14 17:52:00,
2013-03-14 18:01:00,77.0,29.0,30.17,East,93,2.0,6.0,17,0.00,,,0.00,,2013-03-14 18:01:00,
2013-03-14 18:22:00,78.0,28.0,30.17,ESE,116,2.0,5.0,16,0.00,,,0.00,,2013-03-14 18:22:00,
2013-03-14 18:32:00,79.0,27.0,30.16,East,82,1.0,6.0,15,0.00,,,0.00,,2013-03-14 18:32:00,
2013-03-14 18:52:00,79.0,27.0,30.16,East,100,3.0,6.0,15,0.00,,,0.00,,2013-03-14 18:52:00,
2013-03-14 19:01:00,81.0,29.0,30.16,East,83,1.0,5.0,15,0.00,,,0.00,,2013-03-14 19:01:00,
2013-03-14 19:11:00,81.0,29.0,30.16,East,83,1.0,5.0,15,0.00,,,0.00,,2013-03-14 19:11:00,
2013-03-14 19:22:00,82.0,28.0,30.15,North,0,0.0,6.0,14,0.00,,,0.00,,2013-03-14 19:22:00,
2013-03-14 19:31:00,82.0,28.0,30.14,NNW,332,1.0,7.0,14,0.00,,,0.00,,2013-03-14 19:31:00,
2013-03-14 19:42:00,82.0,28.0,30.14,NNW,332,1.0,7.0,14,0.00,,,0.00,,2013-03-14 19:42:00,
2013-03-14 19:52:00,82.0,28.0,30.14,SE,129,4.0,6.0,14,0.00,,,0.00,,2013-03-14 19:52:00,
2013-03-14 20:01:00,83.0,29.0,30.16,North,0,0.0,6.0,14,0.00,,,0.00,,2013-03-14 20:01:00,
2013-03-14 20:21:00,82.0,28.0,30.15,ENE,78,4.0,8.0,14,0.00,,,0.00,,2013-03-14 20:21:00,
2013-03-14 20:31:00,82.0,28.0,30.14,South,171,4.0,11.0,14,0.00,,,0.00,,2013-03-14 20:31:00,
2013-03-14 20:41:00,82.0,28.0,30.14,South,171,4.0,11.0,14,0.00,,,0.00,,2013-03-14 20:41:00,
2013-03-14 20:52:00,83.0,27.0,30.13,SSE,153,2.0,9.0,13,0.00,,,0.00,,2013-03-14 20:52:00,
2013-03-14 21:01:00,85.0,27.0,30.12,NE,50,2.0,5.0,12,0.00,,,0.00,,2013-03-14 21:01:00,
2013-03-14 21:12:00,85.0,27.0,30.12,NE,50,2.0,5.0,12,0.00,,,0.00,,2013-03-14 21:12:00,
2013-03-14 21:21:00,85.0,27.0,30.12,SSW,205,3.0,8.0,12,0.00,,,0.00,,2013-03-14 21:21:00,
2013-03-14 21:32:00,84.0,26.0,30.11,South,175,4.0,7.0,12,0.00,,,0.00,,2013-03-14 21:32:00,
2013-03-14 21:43:00,84.0,26.0,30.11,South,175,4.0,7.0,12,0.00,,,0.00,,2013-03-14 21:43:00,
2013-03-14 21:53:00,85.0,27.0,30.11,South,169,2.0,5.0,12,0.00,,,0.00,,2013-03-14 21:53:00,
2013-03-14 22:03:00,85.0,27.0,30.10,North,0,0.0,11.0,12,0.00,,,0.00,,2013-03-14 22:03:00,
2013-03-14 22:12:00,85.0,27.0,30.10,North,0,0.0,11.0,12,0.00,,,0.00,,2013-03-14 22:12:00,
2013-03-14 22:23:00,87.0,26.0,30.09,North,0,0.0,4.0,11,0.00,,,0.00,,2013-03-14 22:23:00,
2013-03-14 22:32:00,86.0,25.0,30.09,SW,229,2.0,9.0,11,0.00,,,0.00,,2013-03-14 22:32:00,
2013-03-14 22:41:00,86.0,25.0,30.09,SW,229,2.0,9.0,11,0.00,,,0.00,,2013-03-14 22:41:00,
2013-03-14 22:52:00,84.0,26.0,30.09,South,187,5.0,14.0,12,0.00,,,0.00,,2013-03-14 22:52:00,
2013-03-14 23:02:00,86.0,25.0,30.08,NW,318,2.0,6.0,11,0.00,,,0.00,,2013-03-14 23:02:00,
2013-03-14 23:11:00,86.0,25.0,30.08,NW,318,2.0,6.0,11,0.00,,,0.00,,2013-03-14 23:11:00,
2013-03-14 23:21:00,87.0,26.0,30.07,SW,232,3.0,7.0,11,0.00,,,0.00,,2013-03-14 23:21:00,
2013-03-14 23:32:00,88.0,25.0,30.06,WSW,250,1.0,6.0,10,0.00,,,0.00,,2013-03-14 23:32:00,
2013-03-14 23:42:00,88.0,25.0,30.06,WSW,250,1.0,6.0,10,0.00,,,0.00,,2013-03-14 23:42:00,
2013-03-14 23:53:00,89.0,25.0,30.06,SSW,202,4.0,8.0,10,0.00,,,0.00,,2013-03-14 23:53:00,